• Join FlightAware (Why Join?)
  • Login
  • US Flag 
12:17AM EDT


 

Airport Tracker/Info


-or-


 

Live Flight TrackerFlight Track Log ✈ N601AA ✈ 09-Jun-2014 ✈ KBCT - KGSO

Flight Track Log - Related Links

Times and Time Zones

All times are in EDT time to prevent confusion due to time zone crossing. See the N601AA flight status page for this flight to view local times or setup timezone preferences in your user account.

Time Position Orientation Groundspeed Altitude Reporting Facility
EDT Latitude Longitude Course Direction KTS MPH feet Rate Location/Type
05:56PM 26.3858 -80.1614 342° North 193 222 1,700  Level Miami Center
05:57PM 26.4350 -80.2000 325° Northwest 216 249 2,000 360 Climbing Miami Center
05:58PM 26.5000 -80.2533 324° Northwest 267 307 2,500 1,200 Climbing Miami Center
05:59PM 26.5386 -80.3153 305° West 244 281 4,500 2,040 Climbing Miami Center
06:00PM 26.5500 -80.3897 280° West 248 285 6,700 2,100 Climbing Miami Center
06:01PM 26.5647 -80.4906 279° West 315 362 8,900 2,040 Climbing Miami Center
06:02PM 26.8723 -80.5437 342° North  Level FlightAware Approximate
06:02PM 26.5775 -80.6011 277° West 357 411 11,000  Level Miami Center
06:03PM 26.6403 -80.6947 307° West 378 435 13,600 2,580 Climbing Miami Center
06:04PM 26.7400 -80.7489 334° Northwest 380 437 16,300 2,160 Climbing Miami Center
06:05PM 26.8289 -80.7797 343° North 374 430 18,100 1,800 Climbing Miami Center
06:07PM 26.9322 -80.8136 344° North 383 441 20,100 1,920 Climbing Miami Center
06:08PM 27.0372 -80.8464 344° North 390 449 22,100 2,160 Climbing Miami Center
06:09PM 27.1658 -80.8875 344° North 399 459 24,600 1,980 Climbing Miami Center
06:10PM 27.2711 -80.9222 344° North 397 457 26,300 1,260 Climbing Miami Center
06:11PM 27.3792 -80.9567 344° North 403 464 27,300 960 Climbing Miami Center
06:12PM 27.4936 -80.9886 346° North 417 480 28,300 960 Climbing Miami Center
06:13PM 27.6100 -81.0367 340° North 446 513 29,300 900 Climbing Miami Center
06:14PM 27.7306 -81.0628 349° North 444 511 30,200 840 Climbing Miami Center
06:15PM 27.8792 -81.0911 350° North 453 521 31,100 780 Climbing Miami Center
06:16PM 28.0069 -81.1136 351° North 460 529 31,900 780 Climbing Miami Center
06:17PM 28.1414 -81.1361 352° North 464 534 32,800 780 Climbing Miami Center
06:18PM 28.2761 -81.1592 351° North 469 540 33,600 660 Climbing Miami Center
06:19PM 28.3903 -81.1786 351° North 468 539 34,200 720 Climbing Miami Center
06:19PM 28.4872 -81.1992 349° North 474 545 34,800 480 Climbing Jacksonville Center
06:20PM 28.6169 -81.2183 353° North 474 545 35,000  Climbing Jacksonville Center
06:21PM 28.7550 -81.2397 352° North 480 552 34,900 -60 Descending Jacksonville Center
06:22PM 28.8908 -81.2658 350° North 486 559 34,900  Level Jacksonville Center
06:23PM 29.0289 -81.2897 351° North 492 566 34,900  Level Jacksonville Center
06:24PM 29.1669 -81.3136 351° North 497 572 34,900 120 Level Jacksonville Center
06:25PM 29.3050 -81.3303 354° North 497 572 35,200 600 Climbing Jacksonville Center
06:26PM 29.4386 -81.3283 North 491 565 36,100 900 Climbing Jacksonville Center
06:27PM 29.5678 -81.3214 North 475 547 37,000 420 Climbing Jacksonville Center
06:28PM 29.6994 -81.3122 North 469 540 37,000 -60 Level Jacksonville Center
06:29PM 29.8308 -81.3028 North 469 540 36,900 -60 Descending Jacksonville Center
06:30PM 29.9622 -81.2958 North 469 540 36,900  Level Jacksonville Center
06:31PM 30.0978 -81.2889 North 469 540 37,000  Climbing Jacksonville Center
06:32PM 30.2292 -81.2819 North 474 545 37,000 -60 Level Jacksonville Center
06:33PM 30.3647 -81.2722 North 474 545 36,900  Descending Jacksonville Center
06:34PM 30.4961 -81.2653 North 474 545 37,000  Climbing Jacksonville Center
06:35PM 30.6297 -81.2581 North 474 545 37,000  Level Jacksonville Center
06:36PM 30.7633 -81.2486 North 479 551 37,000 -60 Level Jacksonville Center
06:37PM 30.8947 -81.2414 North 474 545 36,900  Descending Jacksonville Center
06:38PM 31.0303 -81.2342 North 474 545 37,000  Climbing Jacksonville Center
06:39PM 31.1639 -81.2294 North 474 545 36,900 -60 Descending Jacksonville Center
06:40PM 31.2994 -81.2222 North 480 552 36,900  Level Jacksonville Center
06:41PM 31.4142 -81.2081 North 471 542 37,000  Climbing Jacksonville Center
06:42PM 31.5603 -81.2031 North 471 542 37,000  Level Jacksonville Center
06:43PM 31.6936 -81.1931 North 477 549 37,000  Level Jacksonville Center
06:44PM 31.8106 -81.1861 North 477 549 37,000 -60 Level Jacksonville Center
06:45PM 31.9461 -81.1786 North 477 549 36,900  Descending Jacksonville Center
06:46PM 32.0797 -81.1689 North 477 549 37,000  Climbing Jacksonville Center
06:47PM 32.2111 -81.1639 North 477 549 37,000 -60 Level Jacksonville Center
06:48PM 32.3531 -81.1539 North 472 543 36,900  Descending Jacksonville Center
06:49PM 32.4761 -81.1492 North 480 552 37,000  Climbing Jacksonville Center
06:50PM 32.6153 -81.1094 14° North 468 539 37,000 -60 Level Jacksonville Center
06:51PM 32.7356 -81.0478 23° Northeast 468 539 36,900  Descending Jacksonville Center
06:52PM 32.8600 -80.9883 22° Northeast 468 539 37,000  Climbing Jacksonville Center
06:53PM 32.9822 -80.9289 22° Northeast 468 539 36,900  Descending Jacksonville Center
06:54PM 33.1086 -80.8714 21° North 473 544 37,000  Climbing Jacksonville Center
06:55PM 33.2350 -80.8114 22° Northeast 473 544 36,900 -360 Descending Jacksonville Center
06:56PM 33.3633 -80.7539 21° North 478 550 36,300 -960 Descending Jacksonville Center
06:57PM 33.4958 -80.6908 22° Northeast 489 563 35,000 -1,320 Descending Jacksonville Center
06:58PM 33.6303 -80.6275 21° North 499 574 33,700 -1,320 Descending Jacksonville Center
06:59PM 33.7583 -80.5469 28° Northeast 511 588 32,400 -1,320 Descending Jacksonville Center
07:00PM 33.8819 -80.4636 29° Northeast 511 588 31,100 -1,320 Descending Jacksonville Center
07:01PM 34.0078 -80.3875 27° Northeast 506 582 29,800 -1,260 Descending Jacksonville Center
07:02PM 34.1333 -80.3086 27° Northeast 506 582 28,600 -1,260 Descending Jacksonville Center
07:03PM 34.2592 -80.2344 26° Northeast 506 582 27,300 -1,320 Descending Jacksonville Center
07:04PM 34.3867 -80.1525 28° Northeast 506 582 26,000 -1,320 Descending Jacksonville Center
07:05PM 34.5122 -80.0806 25° Northeast 506 582 24,700 -1,380 Descending Jacksonville Center
07:06PM 34.6414 -80.0739 North 481 554 23,300 -720 Descending Jacksonville Center
07:08PM 34.8022 -80.0486 North 461 531 23,000 -180 Descending Washington Center
07:09PM 34.9022 -79.9403 42° Northeast 447 514 23,000 -720 Level Washington Center
07:10PM 35.0175 -79.8703 26° Northeast 455 524 21,600 -1,920 Descending Washington Center
07:11PM 35.1492 -79.8086 21° North 470 541 19,300 -2,220 Descending Washington Center
07:12PM 35.2614 -79.7561 21° North 490 564 17,200 -2,100 Descending Washington Center
07:14PM 35.4627 -79.8001 North  Level Estimated
07:21PM 36.1000 -79.9333 15° North  Level FlightAware Approximate
07:22PM 36.1013 -79.9411 15° North  Level Estimated
07:23PM 36.1000 -79.9333 15° North  Level FlightAware Approximate
07:24PM 36.1013 -79.9411 15° North  Level Estimated
07:25PM 36.1000 -79.9333 15° North  Level FlightAware Approximate
07:26PM 36.1013 -79.9411 15° North  Level Estimated
07:27PM 36.1000 -79.9333 15° North  Level FlightAware Approximate
07:28PM 36.1013 -79.9411 15° North  Level Estimated